Startpagina
METAR-TAF:

METAR-TAF

Vliegvelden :

Yap, Yap Island, Micronesië

breedte: 09-29N, lengte: 138-05E, hoogte: 28 m

Actueel weer

Dit bericht is 17 minuten geleden gemaakt, om 06:51 UTC
Wind 4 kt uit variabele richting
Temperatuur 29°C
Vochtigheid 79%
Druk 1008 hPa
Zicht: 19.3 km
Weinig wolken op 1600 ft
Gebroken wolken op 13000 ft
Gebroken wolken op 30000 ft

METAR: PTYA 270651Z VRB04KT 12SM FEW016 BKN130 BKN300 29/25 A2977 RMK SLP083 T02880252

Tijdstip: 17:08 (07:08 UTC)

Verwachting

Dit bericht is 1 uur en het 35 minuten geleden gemaakt, om 05:33 UTC
Verwachting geldig van 27 om 06 UTC tot 28 om 06 UTC
Wind 11 kt uit het zuidzuidoosten
Zicht: 10 km
Verspreide wolken op 1500 ft
Gebroken wolken op 13000 ft
buien in de omgeving

TAF: PTYA 270533Z 2706/2806 16011KT P6SM VCSH SCT015 BKN130

Waarnemingen en weersverwachtingen van meer dan 4000 vliegvelden (METAR en TAF).

De beschikbare stations zijn de gele en rode punten op de kaart.

Ga met uw muis naar het station om de naam te zien.

Klik dan om waarnemingen en weersverwachtingen te zien.

kaart wijzigen: klik op de groene knoppen met een zwart kruis om in te zoomen, op de groene knop met een streepje om uit te zoomen of op de groene pijlen voor aangrenzende kaarten.


METAR-TAF: